Skip Navigation LinksHome page > Weather > Current weather Skip Navigation Links

Current Weather

San Francisco International, San Francisco

For information only: do not use for flight planning or navigation.
Latest weather
Observation time Tuesday, August 30, 2016 5:56 AM PDT
Local time Tuesday, August 30, 2016 6:05 AM PDT
Flight conditions Visual Meteorological Conditions
Winds
Wind direction West (270°)
Wind speed 13 mph
Visibility 10 mi.
Sky condition
Ceiling 10,000 ft. broken clouds
Cloud layer scattered clouds 1,100 ft.
Cloud layer broken clouds 10,000 ft.
Cloud layer broken clouds 15,000 ft.
Temperature 60°F
Dewpoint 55°F
Altimeter 30.01 in.Hg
Derived measurements
Relative humidity 83%
Density altitude 189 ft.
Sea-level pressure 30.01 in.Hg
Remarks
Automated weather observing station with precipitation discriminator.
METAR KSFO 301256Z 27011KT 10SM SCT011 BKN100 BKN150 16/13 A3001 RMK AO2 SLP162 T01560128

Settings

Location code

InnerDrive.Weather 4.0.5722.1 Release CLR 4.0.30319.34209
Copyright ©2015 Inner Drive Technology. All rights reserved. Portions Copyright ©1986-2015 David Braverman.

Find weather

Site navigation


Skip Navigation Links

Place info

Page info

PayPal - The safer, easier way to pay online!

Return home.

Copyright ©2016 Inner Drive Technology. Purveyors of fine, hand-crafted computer software. Page printed 2016-08-30T13:05:51 UTC.